sensor_id;sensor_type;location;lat;lon;timestamp;pressure;altitude;pressure_sealevel;temperature;humidity
55486;BME280;71262;-25.924;28.194;2024-02-21T00:01:21;85073.55;;;26.72;37.84
55486;BME280;71262;-25.924;28.194;2024-02-21T00:03:44;85070.08;;;26.72;37.84
55486;BME280;71262;-25.924;28.194;2024-02-21T00:06:10;85069.41;;;26.50;37.85
55486;BME280;71262;-25.924;28.194;2024-02-21T00:08:36;85069.03;;;26.50;37.84
55486;BME280;71262;-25.924;28.194;2024-02-21T00:11:01;85069.21;;;26.49;37.84
55486;BME280;71262;-25.924;28.194;2024-02-21T00:13:27;85070.94;;;26.50;37.84
55486;BME280;71262;-25.924;28.194;2024-02-21T00:15:52;85068.71;;;26.51;37.83
55486;BME280;71262;-25.924;28.194;2024-02-21T00:18:18;85064.76;;;26.72;37.84
55486;BME280;71262;-25.924;28.194;2024-02-21T00:20:43;85065.02;;;26.52;37.82
55486;BME280;71262;-25.924;28.194;2024-02-21T00:23:09;85061.12;;;26.60;37.72
55486;BME280;71262;-25.924;28.194;2024-02-21T00:25:35;85061.41;;;26.56;37.74
55486;BME280;71262;-25.924;28.194;2024-02-21T00:28:01;85060.04;;;26.51;37.80
55486;BME280;71262;-25.924;28.194;2024-02-21T00:30:26;85059.81;;;26.48;37.85
55486;BME280;71262;-25.924;28.194;2024-02-21T00:32:52;85058.15;;;26.47;37.85
55486;BME280;71262;-25.924;28.194;2024-02-21T00:35:17;85052.94;;;26.68;37.88
55486;BME280;71262;-25.924;28.194;2024-02-21T00:37:43;85050.15;;;26.45;37.88
55486;BME280;71262;-25.924;28.194;2024-02-21T00:40:09;85047.30;;;26.45;37.90
55486;BME280;71262;-25.924;28.194;2024-02-21T00:42:34;85046.55;;;26.44;37.88
55486;BME280;71262;-25.924;28.194;2024-02-21T00:45:00;85047.09;;;26.44;37.87
55486;BME280;71262;-25.924;28.194;2024-02-21T00:47:25;85040.92;;;26.22;37.87
55486;BME280;71262;-25.924;28.194;2024-02-21T00:49:51;85034.90;;;26.66;37.89
55486;BME280;71262;-25.924;28.194;2024-02-21T00:52:17;85032.16;;;26.65;37.89
55486;BME280;71262;-25.924;28.194;2024-02-21T00:54:43;85029.01;;;26.90;37.90
55486;BME280;71262;-25.924;28.194;2024-02-21T00:57:08;85025.51;;;26.41;37.90
55486;BME280;71262;-25.924;28.194;2024-02-21T00:59:34;85022.40;;;26.41;37.91
55486;BME280;71262;-25.924;28.194;2024-02-21T01:02:00;85023.77;;;26.40;37.91
55486;BME280;71262;-25.924;28.194;2024-02-21T01:04:25;85026.12;;;26.40;37.91
55486;BME280;71262;-25.924;28.194;2024-02-21T01:06:51;85024.75;;;26.40;37.89
55486;BME280;71262;-25.924;28.194;2024-02-21T01:09:17;85024.45;;;26.39;37.91
55486;BME280;71262;-25.924;28.194;2024-02-21T01:11:42;85026.35;;;26.40;37.90
55486;BME280;71262;-25.924;28.194;2024-02-21T01:14:08;85024.88;;;26.40;37.90
55486;BME280;71262;-25.924;28.194;2024-02-21T01:16:34;85023.91;;;26.39;37.91
55486;BME280;71262;-25.924;28.194;2024-02-21T01:18:59;85023.27;;;26.61;37.89
55486;BME280;71262;-25.924;28.194;2024-02-21T01:21:25;85020.41;;;26.38;37.90
55486;BME280;71262;-25.924;28.194;2024-02-21T01:23:51;85024.49;;;26.86;37.94
55486;BME280;71262;-25.924;28.194;2024-02-21T01:26:16;85024.21;;;26.59;37.91
55486;BME280;71262;-25.924;28.194;2024-02-21T01:28:43;85023.28;;;26.36;37.91
55486;BME280;71262;-25.924;28.194;2024-02-21T01:31:08;85020.90;;;26.36;37.92
55486;BME280;71262;-25.924;28.194;2024-02-21T01:33:33;85021.27;;;26.58;37.92
55486;BME280;71262;-25.924;28.194;2024-02-21T01:35:59;85024.67;;;26.58;37.92
55486;BME280;71262;-25.924;28.194;2024-02-21T01:38:25;85025.32;;;26.36;37.90
55486;BME280;71262;-25.924;28.194;2024-02-21T01:40:51;85030.07;;;26.36;37.93
55486;BME280;71262;-25.924;28.194;2024-02-21T01:43:17;85029.85;;;26.84;37.93
55486;BME280;71262;-25.924;28.194;2024-02-21T01:45:42;85034.42;;;26.57;37.94
55486;BME280;71262;-25.924;28.194;2024-02-21T01:48:08;85037.02;;;26.34;37.92
55486;BME280;71262;-25.924;28.194;2024-02-21T01:50:34;85036.91;;;26.33;37.95
55486;BME280;71262;-25.924;28.194;2024-02-21T01:53:00;85034.29;;;26.33;37.98
55486;BME280;71262;-25.924;28.194;2024-02-21T01:55:25;85034.77;;;26.33;37.96
55486;BME280;71262;-25.924;28.194;2024-02-21T01:57:51;85035.66;;;26.32;37.95
55486;BME280;71262;-25.924;28.194;2024-02-21T02:00:17;85035.88;;;26.31;37.95
55486;BME280;71262;-25.924;28.194;2024-02-21T02:02:42;85038.06;;;26.31;37.95
55486;BME280;71262;-25.924;28.194;2024-02-21T02:05:08;85037.81;;;26.31;37.93
55486;BME280;71262;-25.924;28.194;2024-02-21T02:07:33;85038.13;;;26.54;37.93
55486;BME280;71262;-25.924;28.194;2024-02-21T02:09:58;85037.82;;;26.31;37.96
55486;BME280;71262;-25.924;28.194;2024-02-21T02:12:24;85035.02;;;26.30;37.95
55486;BME280;71262;-25.924;28.194;2024-02-21T02:14:58;85030.99;;;26.78;37.97
55486;BME280;71262;-25.924;28.194;2024-02-21T02:17:15;85030.68;;;26.29;37.99
55486;BME280;71262;-25.924;28.194;2024-02-21T02:19:40;85028.99;;;26.50;37.96
55486;BME280;71262;-25.924;28.194;2024-02-21T02:22:16;85028.21;;;26.49;37.96
55486;BME280;71262;-25.924;28.194;2024-02-21T02:24:32;85023.83;;;26.28;37.98
55486;BME280;71262;-25.924;28.194;2024-02-21T02:26:57;85018.79;;;26.49;37.97
55486;BME280;71262;-25.924;28.194;2024-02-21T02:29:23;85019.81;;;26.26;37.95
55486;BME280;71262;-25.924;28.194;2024-02-21T02:31:49;85025.25;;;26.26;37.94
55486;BME280;71262;-25.924;28.194;2024-02-21T02:34:14;85031.30;;;26.48;37.98
55486;BME280;71262;-25.924;28.194;2024-02-21T02:36:40;85032.62;;;26.25;37.99
55486;BME280;71262;-25.924;28.194;2024-02-21T02:39:05;85033.41;;;26.24;38.00
55486;BME280;71262;-25.924;28.194;2024-02-21T02:41:31;85034.67;;;26.73;38.00
55486;BME280;71262;-25.924;28.194;2024-02-21T02:43:57;85038.73;;;26.46;38.00
55486;BME280;71262;-25.924;28.194;2024-02-21T02:46:22;85039.37;;;26.72;38.02
55486;BME280;71262;-25.924;28.194;2024-02-21T02:48:47;85040.66;;;26.22;38.01
55486;BME280;71262;-25.924;28.194;2024-02-21T02:51:12;85043.73;;;26.44;38.02
55486;BME280;71262;-25.924;28.194;2024-02-21T02:53:38;85046.44;;;26.71;38.00
55486;BME280;71262;-25.924;28.194;2024-02-21T02:56:04;85048.98;;;26.21;38.00
55486;BME280;71262;-25.924;28.194;2024-02-21T02:58:30;85051.38;;;26.21;38.01
55486;BME280;71262;-25.924;28.194;2024-02-21T03:00:56;85051.86;;;26.20;38.00
55486;BME280;71262;-25.924;28.194;2024-02-21T03:03:21;85053.77;;;26.69;38.04
55486;BME280;71262;-25.924;28.194;2024-02-21T03:05:47;85056.12;;;26.19;38.03
55486;BME280;71262;-25.924;28.194;2024-02-21T03:08:12;85063.40;;;26.19;38.03
55486;BME280;71262;-25.924;28.194;2024-02-21T03:10:38;85066.81;;;26.41;38.01
55486;BME280;71262;-25.924;28.194;2024-02-21T03:13:04;85067.55;;;26.19;38.00
55486;BME280;71262;-25.924;28.194;2024-02-21T03:15:30;85067.55;;;26.68;38.02
55486;BME280;71262;-25.924;28.194;2024-02-21T03:17:55;85067.38;;;26.41;38.01
55486;BME280;71262;-25.924;28.194;2024-02-21T03:20:21;85070.00;;;26.40;38.01
55486;BME280;71262;-25.924;28.194;2024-02-21T03:22:46;85073.34;;;26.17;38.01
55486;BME280;71262;-25.924;28.194;2024-02-21T03:25:12;85074.69;;;26.16;38.04
55486;BME280;71262;-25.924;28.194;2024-02-21T03:27:37;85075.21;;;26.66;38.00
55486;BME280;71262;-25.924;28.194;2024-02-21T03:30:04;85081.42;;;26.17;38.04
55486;BME280;71262;-25.924;28.194;2024-02-21T03:32:29;85085.34;;;26.15;38.00
55486;BME280;71262;-25.924;28.194;2024-02-21T03:34:55;85091.56;;;26.37;38.01
55486;BME280;71262;-25.924;28.194;2024-02-21T03:37:21;85097.44;;;26.14;38.03
55486;BME280;71262;-25.924;28.194;2024-02-21T03:39:46;85097.52;;;26.14;38.02
55486;BME280;71262;-25.924;28.194;2024-02-21T03:42:12;85097.35;;;26.36;38.03
55486;BME280;71262;-25.924;28.194;2024-02-21T03:44:37;85097.11;;;26.62;38.06
55486;BME280;71262;-25.924;28.194;2024-02-21T03:47:03;85094.81;;;26.35;38.03
55486;BME280;71262;-25.924;28.194;2024-02-21T03:49:28;85101.53;;;26.13;38.06
55486;BME280;71262;-25.924;28.194;2024-02-21T03:51:55;85114.12;;;26.35;38.05
55486;BME280;71262;-25.924;28.194;2024-02-21T03:54:20;85124.39;;;26.12;38.04
55486;BME280;71262;-25.924;28.194;2024-02-21T03:56:46;85130.13;;;26.12;38.04
55486;BME280;71262;-25.924;28.194;2024-02-21T03:59:12;85132.66;;;26.12;38.04
55486;BME280;71262;-25.924;28.194;2024-02-21T04:01:37;85135.56;;;26.12;38.06
55486;BME280;71262;-25.924;28.194;2024-02-21T04:04:03;85136.48;;;26.11;38.05
55486;BME280;71262;-25.924;28.194;2024-02-21T04:06:28;85138.22;;;26.33;38.04
55486;BME280;71262;-25.924;28.194;2024-02-21T04:08:54;85138.84;;;26.64;38.00
55486;BME280;71262;-25.924;28.194;2024-02-21T04:11:20;85140.48;;;26.22;37.90
55486;BME280;71262;-25.924;28.194;2024-02-21T04:13:46;85142.47;;;26.25;37.86
55486;BME280;71262;-25.924;28.194;2024-02-21T04:16:12;85147.57;;;26.76;37.84
55486;BME280;71262;-25.924;28.194;2024-02-21T04:18:37;85147.60;;;26.25;37.85
55486;BME280;71262;-25.924;28.194;2024-02-21T04:21:03;85151.11;;;26.17;37.94
55486;BME280;71262;-25.924;28.194;2024-02-21T04:23:28;85155.20;;;26.35;37.99
55486;BME280;71262;-25.924;28.194;2024-02-21T04:25:54;85157.97;;;26.33;38.01
55486;BME280;71262;-25.924;28.194;2024-02-21T04:28:20;85163.18;;;26.32;38.05
55486;BME280;71262;-25.924;28.194;2024-02-21T04:30:46;85165.34;;;26.31;38.06
55486;BME280;71262;-25.924;28.194;2024-02-21T04:33:12;85171.47;;;26.09;38.07
55486;BME280;71262;-25.924;28.194;2024-02-21T04:35:37;85176.48;;;26.31;38.08
55486;BME280;71262;-25.924;28.194;2024-02-21T04:38:03;85179.67;;;26.32;38.08
55486;BME280;71262;-25.924;28.194;2024-02-21T04:40:29;85183.01;;;26.11;38.06
55486;BME280;71262;-25.924;28.194;2024-02-21T04:42:55;85184.45;;;26.12;38.05
55486;BME280;71262;-25.924;28.194;2024-02-21T04:45:20;85185.96;;;26.35;38.04
55486;BME280;71262;-25.924;28.194;2024-02-21T04:47:46;85189.55;;;26.15;38.02
55486;BME280;71262;-25.924;28.194;2024-02-21T04:50:12;85191.10;;;26.17;38.00
55486;BME280;71262;-25.924;28.194;2024-02-21T04:52:38;85190.32;;;26.22;37.94
55486;BME280;71262;-25.924;28.194;2024-02-21T04:55:04;85188.11;;;26.23;37.99
55486;BME280;71262;-25.924;28.194;2024-02-21T04:57:29;85188.15;;;26.24;38.00
55486;BME280;71262;-25.924;28.194;2024-02-21T04:59:55;85185.37;;;26.25;38.00
55486;BME280;71262;-25.924;28.194;2024-02-21T05:02:20;85188.61;;;26.27;38.00
55486;BME280;71262;-25.924;28.194;2024-02-21T05:04:46;85192.42;;;26.52;37.99
55486;BME280;71262;-25.924;28.194;2024-02-21T05:07:12;85190.75;;;26.32;37.94
55486;BME280;71262;-25.924;28.194;2024-02-21T05:09:37;85187.98;;;26.34;37.93
55486;BME280;71262;-25.924;28.194;2024-02-21T05:12:03;85188.46;;;26.37;37.92
55486;BME280;71262;-25.924;28.194;2024-02-21T05:14:28;85191.58;;;26.40;37.91
55486;BME280;71262;-25.924;28.194;2024-02-21T05:16:54;85198.16;;;26.44;37.90
55486;BME280;71262;-25.924;28.194;2024-02-21T05:19:20;85197.70;;;26.46;37.91
55486;BME280;71262;-25.924;28.194;2024-02-21T05:21:46;85197.73;;;26.49;37.92
55486;BME280;71262;-25.924;28.194;2024-02-21T05:24:11;85199.89;;;26.58;37.84
55486;BME280;71262;-25.924;28.194;2024-02-21T05:26:37;85207.26;;;26.68;37.74
55486;BME280;71262;-25.924;28.194;2024-02-21T05:29:02;85211.16;;;26.75;37.68
55486;BME280;71262;-25.924;28.194;2024-02-21T05:33:53;85206.81;;;26.63;37.63
55486;BME280;71262;-25.924;28.194;2024-02-21T05:36:18;85207.55;;;26.88;37.61
55486;BME280;71262;-25.924;28.194;2024-02-21T05:38:44;85210.32;;;26.84;37.71
55486;BME280;71262;-25.924;28.194;2024-02-21T05:41:10;85207.76;;;26.61;37.75
55486;BME280;71262;-25.924;28.194;2024-02-21T05:43:36;85208.51;;;26.86;37.74
55486;BME280;71262;-25.924;28.194;2024-02-21T05:46:01;85212.75;;;26.67;37.77
55486;BME280;71262;-25.924;28.194;2024-02-21T05:48:27;85214.00;;;26.92;37.73
55486;BME280;71262;-25.924;28.194;2024-02-21T05:50:53;85219.39;;;26.96;37.76
55486;BME280;71262;-25.924;28.194;2024-02-21T05:53:18;85227.94;;;26.77;37.74
55486;BME280;71262;-25.924;28.194;2024-02-21T05:55:44;85233.53;;;26.82;37.76
55486;BME280;71262;-25.924;28.194;2024-02-21T05:58:09;85234.34;;;26.86;37.72
55486;BME280;71262;-25.924;28.194;2024-02-21T06:00:35;85231.45;;;27.13;37.70
55486;BME280;71262;-25.924;28.194;2024-02-21T06:03:01;85230.65;;;26.95;37.64
55486;BME280;71262;-25.924;28.194;2024-02-21T06:05:26;85232.48;;;27.00;37.63
55486;BME280;71262;-25.924;28.194;2024-02-21T06:07:52;85236.44;;;26.80;37.61
55486;BME280;71262;-25.924;28.194;2024-02-21T06:10:18;85235.76;;;27.11;37.57
55486;BME280;71262;-25.924;28.194;2024-02-21T06:12:44;85229.20;;;27.16;37.55
55486;BME280;71262;-25.924;28.194;2024-02-21T06:15:10;85225.53;;;26.94;37.47
55486;BME280;71262;-25.924;28.194;2024-02-21T06:17:34;85233.36;;;27.24;37.52
55486;BME280;71262;-25.924;28.194;2024-02-21T06:20:00;85233.64;;;27.29;37.48
55486;BME280;71262;-25.924;28.194;2024-02-21T06:22:25;85233.97;;;27.07;37.46
55486;BME280;71262;-25.924;28.194;2024-02-21T06:24:51;85237.53;;;27.11;37.44
55486;BME280;71262;-25.924;28.194;2024-02-21T06:27:17;85236.61;;;27.15;37.38
55486;BME280;71262;-25.924;28.194;2024-02-21T06:29:42;85232.61;;;27.19;37.38
55486;BME280;71262;-25.924;28.194;2024-02-21T06:32:07;85233.76;;;27.25;37.33
55486;BME280;71262;-25.924;28.194;2024-02-21T06:34:33;85229.55;;;27.29;37.36
55486;BME280;71262;-25.924;28.194;2024-02-21T06:36:58;85227.72;;;27.12;37.36
55486;BME280;71262;-25.924;28.194;2024-02-21T06:39:24;85227.88;;;27.42;37.26
55486;BME280;71262;-25.924;28.194;2024-02-21T06:41:49;85234.78;;;27.00;37.29
55486;BME280;71262;-25.924;28.194;2024-02-21T06:44:15;85232.94;;;27.27;37.29
55486;BME280;71262;-25.924;28.194;2024-02-21T06:46:40;85231.92;;;27.56;37.20
55486;BME280;71262;-25.924;28.194;2024-02-21T06:49:06;85230.06;;;27.37;37.17
55486;BME280;71262;-25.924;28.194;2024-02-21T06:51:32;85231.35;;;27.66;37.15
55486;BME280;71262;-25.924;28.194;2024-02-21T06:53:58;85234.76;;;27.70;37.14
55486;BME280;71262;-25.924;28.194;2024-02-21T06:56:24;85235.83;;;27.30;37.10
55486;BME280;71262;-25.924;28.194;2024-02-21T06:58:48;85236.37;;;27.82;37.04
55486;BME280;71262;-25.924;28.194;2024-02-21T07:01:14;85234.64;;;27.69;36.97
55486;BME280;71262;-25.924;28.194;2024-02-21T07:03:39;85235.54;;;27.76;36.90
55486;BME280;71262;-25.924;28.194;2024-02-21T07:06:05;85238.27;;;27.79;36.89
55486;BME280;71262;-25.924;28.194;2024-02-21T07:08:30;85239.53;;;27.87;36.84
55486;BME280;71262;-25.924;28.194;2024-02-21T07:10:56;85236.99;;;27.64;36.84
55486;BME280;71262;-25.924;28.194;2024-02-21T07:13:21;85240.50;;;27.67;36.84
55486;BME280;71262;-25.924;28.194;2024-02-21T07:15:48;85239.13;;;27.72;36.83
55486;BME280;71262;-25.924;28.194;2024-02-21T07:18:13;85241.90;;;27.82;36.72
55486;BME280;71262;-25.924;28.194;2024-02-21T07:20:38;85241.27;;;27.78;36.79
55486;BME280;71262;-25.924;28.194;2024-02-21T07:23:04;85240.09;;;28.00;36.84
55486;BME280;71262;-25.924;28.194;2024-02-21T07:25:30;85240.00;;;28.25;36.78
55486;BME280;71262;-25.924;28.194;2024-02-21T07:27:56;85240.84;;;27.80;36.84
55486;BME280;71262;-25.924;28.194;2024-02-21T07:30:21;85241.24;;;27.84;36.83
55486;BME280;71262;-25.924;28.194;2024-02-21T07:32:49;85239.60;;;28.33;36.77
55486;BME280;71262;-25.924;28.194;2024-02-21T07:35:12;85240.87;;;27.91;36.76
55486;BME280;71262;-25.924;28.194;2024-02-21T07:37:38;85240.66;;;27.94;36.75
55486;BME280;71262;-25.924;28.194;2024-02-21T07:40:04;85236.93;;;27.97;36.72
55486;BME280;71262;-25.924;28.194;2024-02-21T07:42:29;85236.38;;;27.98;36.74
55486;BME280;71262;-25.924;28.194;2024-02-21T07:44:55;85238.49;;;28.02;36.69
55486;BME280;71262;-25.924;28.194;2024-02-21T07:47:20;85237.94;;;28.04;36.70
55486;BME280;71262;-25.924;28.194;2024-02-21T07:49:46;85234.84;;;28.08;36.67
55486;BME280;71262;-25.924;28.194;2024-02-21T07:52:12;85231.79;;;28.11;36.66
55486;BME280;71262;-25.924;28.194;2024-02-21T07:54:37;85229.33;;;28.14;36.63
55486;BME280;71262;-25.924;28.194;2024-02-21T07:57:03;85229.00;;;28.15;36.63
55486;BME280;71262;-25.924;28.194;2024-02-21T07:59:29;85227.03;;;27.94;36.60
55486;BME280;71262;-25.924;28.194;2024-02-21T08:01:57;85225.75;;;27.96;36.59
55486;BME280;71262;-25.924;28.194;2024-02-21T08:04:19;85224.09;;;28.24;36.59
55486;BME280;71262;-25.924;28.194;2024-02-21T08:06:45;85215.66;;;28.28;36.55
55486;BME280;71262;-25.924;28.194;2024-02-21T08:09:11;85217.86;;;28.03;36.55
55486;BME280;71262;-25.924;28.194;2024-02-21T08:11:36;85215.04;;;28.33;36.53
55486;BME280;71262;-25.924;28.194;2024-02-21T08:14:02;85213.59;;;28.57;36.52
55486;BME280;71262;-25.924;28.194;2024-02-21T08:16:27;85213.91;;;28.35;36.52
55486;BME280;71262;-25.924;28.194;2024-02-21T08:18:52;85212.45;;;28.38;36.49
55486;BME280;71262;-25.924;28.194;2024-02-21T08:21:18;85210.60;;;28.13;36.24
55486;BME280;71262;-25.924;28.194;2024-02-21T08:23:43;85213.51;;;28.46;36.10
55486;BME280;71262;-25.924;28.194;2024-02-21T08:26:09;85210.90;;;28.35;36.22
55486;BME280;71262;-25.924;28.194;2024-02-21T08:28:35;85211.56;;;28.56;36.28
55486;BME280;71262;-25.924;28.194;2024-02-21T08:31:00;85209.60;;;28.55;36.30
55486;BME280;71262;-25.924;28.194;2024-02-21T08:33:25;85207.04;;;28.55;36.32
55486;BME280;71262;-25.924;28.194;2024-02-21T08:35:51;85201.34;;;28.56;36.29
55486;BME280;71262;-25.924;28.194;2024-02-21T08:38:17;85200.10;;;28.31;36.28
55486;BME280;71262;-25.924;28.194;2024-02-21T08:40:43;85192.69;;;28.58;36.29
55486;BME280;71262;-25.924;28.194;2024-02-21T08:43:08;85190.93;;;28.60;36.28
55486;BME280;71262;-25.924;28.194;2024-02-21T08:45:34;85193.60;;;28.35;36.25
55486;BME280;71262;-25.924;28.194;2024-02-21T08:47:59;85194.45;;;28.63;36.24
55486;BME280;71262;-25.924;28.194;2024-02-21T08:50:25;85192.64;;;28.65;36.24
55486;BME280;71262;-25.924;28.194;2024-02-21T08:52:51;85187.36;;;28.40;36.22
55486;BME280;71262;-25.924;28.194;2024-02-21T08:55:17;85187.01;;;28.67;36.22
55486;BME280;71262;-25.924;28.194;2024-02-21T08:57:42;85182.15;;;28.68;36.21
55486;BME280;71262;-25.924;28.194;2024-02-21T09:00:09;85177.74;;;28.70;36.19
55486;BME280;71262;-25.924;28.194;2024-02-21T09:02:33;85179.76;;;28.94;36.19
55486;BME280;71262;-25.924;28.194;2024-02-21T09:04:59;85178.30;;;28.73;36.16
55486;BME280;71262;-25.924;28.194;2024-02-21T09:07:25;85175.14;;;28.47;36.16
55486;BME280;71262;-25.924;28.194;2024-02-21T09:09:50;85171.95;;;28.75;36.16
55486;BME280;71262;-25.924;28.194;2024-02-21T09:12:15;85168.18;;;28.74;36.18
55486;BME280;71262;-25.924;28.194;2024-02-21T09:14:41;85166.48;;;28.76;36.15
55486;BME280;71262;-25.924;28.194;2024-02-21T09:17:07;85163.45;;;28.50;36.16
55486;BME280;71262;-25.924;28.194;2024-02-21T09:19:35;85165.63;;;28.78;36.13
55486;BME280;71262;-25.924;28.194;2024-02-21T09:21:58;85163.43;;;28.51;36.15
55486;BME280;71262;-25.924;28.194;2024-02-21T09:24:24;85166.97;;;28.78;36.15
55486;BME280;71262;-25.924;28.194;2024-02-21T09:26:49;85159.72;;;28.78;36.15
55486;BME280;71262;-25.924;28.194;2024-02-21T09:29:15;85155.24;;;28.51;36.15
55486;BME280;71262;-25.924;28.194;2024-02-21T09:31:41;85154.53;;;28.51;36.16
55486;BME280;71262;-25.924;28.194;2024-02-21T09:34:06;85149.06;;;28.77;36.18
55486;BME280;71262;-25.924;28.194;2024-02-21T09:36:32;85143.69;;;28.77;36.15
55486;BME280;71262;-25.924;28.194;2024-02-21T09:38:57;85145.53;;;28.77;36.16
55486;BME280;71262;-25.924;28.194;2024-02-21T09:41:26;85142.34;;;28.51;36.16
55486;BME280;71262;-25.924;28.194;2024-02-21T09:43:50;85138.03;;;28.78;36.14
55486;BME280;71262;-25.924;28.194;2024-02-21T09:46:17;85135.41;;;28.79;36.13
55486;BME280;71262;-25.924;28.194;2024-02-21T09:48:53;85132.91;;;28.78;36.13
55486;BME280;71262;-25.924;28.194;2024-02-21T09:51:06;85131.17;;;28.77;36.13
55486;BME280;71262;-25.924;28.194;2024-02-21T09:53:32;85130.80;;;28.76;36.13
55486;BME280;71262;-25.924;28.194;2024-02-21T09:55:57;85131.44;;;28.74;36.15
55486;BME280;71262;-25.924;28.194;2024-02-21T09:58:23;85131.10;;;28.73;36.14
55486;BME280;71262;-25.924;28.194;2024-02-21T10:00:48;85126.54;;;28.70;36.17
55486;BME280;71262;-25.924;28.194;2024-02-21T10:03:14;85125.42;;;28.68;36.18
55486;BME280;71262;-25.924;28.194;2024-02-21T10:05:45;85123.33;;;28.67;36.19
55486;BME280;71262;-25.924;28.194;2024-02-21T10:08:05;85124.75;;;29.10;36.21
55486;BME280;71262;-25.924;28.194;2024-02-21T10:12:56;85117.39;;;28.62;36.22
55486;BME280;71262;-25.924;28.194;2024-02-21T10:15:22;85118.33;;;28.61;36.24
55486;BME280;71262;-25.924;28.194;2024-02-21T10:17:47;85117.20;;;28.58;36.25
55486;BME280;71262;-25.924;28.194;2024-02-21T10:20:13;85114.53;;;28.56;36.28
55486;BME280;71262;-25.924;28.194;2024-02-21T10:22:39;85113.80;;;28.77;36.29
55486;BME280;71262;-25.924;28.194;2024-02-21T10:25:08;85117.67;;;28.27;36.30
55486;BME280;71262;-25.924;28.194;2024-02-21T10:27:30;85114.75;;;28.74;36.31
55486;BME280;71262;-25.924;28.194;2024-02-21T10:29:56;85108.58;;;28.72;36.33
55486;BME280;71262;-25.924;28.194;2024-02-21T10:32:21;85106.87;;;28.48;36.34
55486;BME280;71262;-25.924;28.194;2024-02-21T10:34:47;85103.43;;;28.46;36.34
55486;BME280;71262;-25.924;28.194;2024-02-21T10:37:13;85102.45;;;28.45;36.36
55486;BME280;71262;-25.924;28.194;2024-02-21T10:39:40;85095.87;;;28.44;36.37
55486;BME280;71262;-25.924;28.194;2024-02-21T10:42:04;85087.52;;;28.64;36.37
55486;BME280;71262;-25.924;28.194;2024-02-21T10:44:31;85087.58;;;28.40;36.39
55486;BME280;71262;-25.924;28.194;2024-02-21T10:46:56;85086.93;;;28.39;36.40
55486;BME280;71262;-25.924;28.194;2024-02-21T10:49:23;85083.25;;;28.38;36.40
55486;BME280;71262;-25.924;28.194;2024-02-21T10:51:48;85080.63;;;28.36;36.42
55486;BME280;71262;-25.924;28.194;2024-02-21T10:54:24;85074.07;;;28.79;36.43
55486;BME280;71262;-25.924;28.194;2024-02-21T10:56:39;85067.92;;;28.34;36.43
55486;BME280;71262;-25.924;28.194;2024-02-21T10:59:05;85060.34;;;28.55;36.43
55486;BME280;71262;-25.924;28.194;2024-02-21T11:01:29;85059.24;;;28.52;36.45
55486;BME280;71262;-25.924;28.194;2024-02-21T11:03:56;85054.39;;;28.50;36.47
55486;BME280;71262;-25.924;28.194;2024-02-21T11:06:21;85054.79;;;28.71;36.49
55486;BME280;71262;-25.924;28.194;2024-02-21T11:08:48;85054.57;;;28.70;36.49
55486;BME280;71262;-25.924;28.194;2024-02-21T11:11:13;85053.65;;;28.47;36.50
55486;BME280;71262;-25.924;28.194;2024-02-21T11:13:38;85044.26;;;28.23;36.52
55486;BME280;71262;-25.924;28.194;2024-02-21T11:16:08;85040.22;;;28.43;36.53
55486;BME280;71262;-25.924;28.194;2024-02-21T11:18:29;85039.73;;;28.65;36.52
55486;BME280;71262;-25.924;28.194;2024-02-21T11:20:55;85036.29;;;28.71;36.45
55486;BME280;71262;-25.924;28.194;2024-02-21T11:23:25;85034.77;;;28.32;36.37
55486;BME280;71262;-25.924;28.194;2024-02-21T11:25:46;85029.94;;;28.55;36.35
55486;BME280;71262;-25.924;28.194;2024-02-21T11:28:11;85022.69;;;28.78;36.33
55486;BME280;71262;-25.924;28.194;2024-02-21T11:30:37;85023.39;;;28.33;36.33
55486;BME280;71262;-25.924;28.194;2024-02-21T11:33:05;85019.46;;;28.55;36.33
55486;BME280;71262;-25.924;28.194;2024-02-21T11:35:32;85015.33;;;28.33;36.32
55486;BME280;71262;-25.924;28.194;2024-02-21T11:37:54;85015.85;;;28.32;36.32
55486;BME280;71262;-25.924;28.194;2024-02-21T11:40:20;85009.90;;;28.53;36.33
55486;BME280;71262;-25.924;28.194;2024-02-21T11:42:45;85008.04;;;28.74;36.34
55486;BME280;71262;-25.924;28.194;2024-02-21T11:45:11;85003.91;;;28.50;36.34
55486;BME280;71262;-25.924;28.194;2024-02-21T11:47:37;84999.99;;;28.50;36.34
55486;BME280;71262;-25.924;28.194;2024-02-21T11:50:03;84999.74;;;28.49;36.36
55486;BME280;71262;-25.924;28.194;2024-02-21T11:52:28;84993.63;;;28.43;36.41
55486;BME280;71262;-25.924;28.194;2024-02-21T11:54:54;84992.68;;;28.57;36.50
55486;BME280;71262;-25.924;28.194;2024-02-21T11:57:19;84987.52;;;28.61;36.44
55486;BME280;71262;-25.924;28.194;2024-02-21T11:59:45;84988.95;;;28.66;36.40
55486;BME280;71262;-25.924;28.194;2024-02-21T12:02:11;84976.84;;;28.66;36.38
55486;BME280;71262;-25.924;28.194;2024-02-21T12:04:37;84973.05;;;28.22;36.37
55486;BME280;71262;-25.924;28.194;2024-02-21T12:07:02;84968.69;;;28.22;36.37
55486;BME280;71262;-25.924;28.194;2024-02-21T12:09:28;84966.19;;;28.44;36.36
55486;BME280;71262;-25.924;28.194;2024-02-21T12:11:57;84961.76;;;28.43;36.37
55486;BME280;71262;-25.924;28.194;2024-02-21T12:14:19;84961.10;;;28.65;36.36
55486;BME280;71262;-25.924;28.194;2024-02-21T12:16:45;84958.55;;;28.42;36.38
55486;BME280;71262;-25.924;28.194;2024-02-21T12:19:10;84959.45;;;28.59;36.42
55486;BME280;71262;-25.924;28.194;2024-02-21T12:21:36;84952.44;;;28.50;36.52
55486;BME280;71262;-25.924;28.194;2024-02-21T12:26:27;84950.65;;;28.45;36.58
55486;BME280;71262;-25.924;28.194;2024-02-21T12:28:53;84949.02;;;28.45;36.59
55486;BME280;71262;-25.924;28.194;2024-02-21T12:31:18;84946.17;;;28.21;36.59
55486;BME280;71262;-25.924;28.194;2024-02-21T12:33:44;84943.22;;;28.42;36.61
55486;BME280;71262;-25.924;28.194;2024-02-21T12:36:10;84939.74;;;28.41;36.62
55486;BME280;71262;-25.924;28.194;2024-02-21T12:38:36;84933.95;;;28.40;36.63